sensor_id;sensor_type;location;lat;lon;timestamp;pressure;altitude;pressure_sealevel;temperature;humidity
66430;BME280;53242;51.694;10.006;2023-02-18T00:01:18;100018.84;;;8.54;72.25
66430;BME280;53242;51.694;10.006;2023-02-18T00:03:42;100017.84;;;8.55;71.67
66430;BME280;53242;51.694;10.006;2023-02-18T00:06:21;100009.63;;;8.50;72.54
66430;BME280;53242;51.694;10.006;2023-02-18T00:08:45;100016.53;;;8.51;72.31
66430;BME280;53242;51.694;10.006;2023-02-18T00:11:07;100018.19;;;8.35;72.60
66430;BME280;53242;51.694;10.006;2023-02-18T00:13:30;100011.78;;;8.30;71.58
66430;BME280;53242;51.694;10.006;2023-02-18T00:15:52;100012.28;;;8.25;72.15
66430;BME280;53242;51.694;10.006;2023-02-18T00:18:15;100012.59;;;8.30;71.73
66430;BME280;53242;51.694;10.006;2023-02-18T00:20:38;100012.94;;;8.27;71.69
66430;BME280;53242;51.694;10.006;2023-02-18T00:23:02;100013.13;;;8.26;71.29
66430;BME280;53242;51.694;10.006;2023-02-18T00:25:24;100008.31;;;8.37;70.61
66430;BME280;53242;51.694;10.006;2023-02-18T00:27:46;100009.00;;;8.31;70.89
66430;BME280;53242;51.694;10.006;2023-02-18T00:30:09;100007.97;;;8.40;70.68
66430;BME280;53242;51.694;10.006;2023-02-18T00:32:33;100012.13;;;8.35;70.47
66430;BME280;53242;51.694;10.006;2023-02-18T00:34:56;100001.06;;;8.39;69.94
66430;BME280;53242;51.694;10.006;2023-02-18T00:37:18;99997.81;;;8.37;70.38
66430;BME280;53242;51.694;10.006;2023-02-18T00:39:41;99998.66;;;8.30;70.53
66430;BME280;53242;51.694;10.006;2023-02-18T00:42:03;99994.03;;;8.32;70.42
66430;BME280;53242;51.694;10.006;2023-02-18T00:44:26;99986.31;;;8.38;70.10
66430;BME280;53242;51.694;10.006;2023-02-18T00:46:48;99988.41;;;8.43;70.05
66430;BME280;53242;51.694;10.006;2023-02-18T00:49:11;99984.00;;;8.44;70.01
66430;BME280;53242;51.694;10.006;2023-02-18T00:51:33;99979.84;;;8.58;70.01
66430;BME280;53242;51.694;10.006;2023-02-18T00:53:56;99981.69;;;8.40;69.97
66430;BME280;53242;51.694;10.006;2023-02-18T00:56:18;99985.78;;;8.43;70.16
66430;BME280;53242;51.694;10.006;2023-02-18T00:58:41;99989.56;;;8.57;69.93
66430;BME280;53242;51.694;10.006;2023-02-18T01:01:05;99985.44;;;8.63;69.53
66430;BME280;53242;51.694;10.006;2023-02-18T01:03:29;99975.28;;;8.51;70.04
66430;BME280;53242;51.694;10.006;2023-02-18T01:05:52;99985.78;;;8.60;70.16
66430;BME280;53242;51.694;10.006;2023-02-18T01:08:15;99988.13;;;8.46;70.52
66430;BME280;53242;51.694;10.006;2023-02-18T01:10:43;99984.47;;;8.47;70.59
66430;BME280;53242;51.694;10.006;2023-02-18T01:13:06;99990.41;;;8.41;71.22
66430;BME280;53242;51.694;10.006;2023-02-18T01:15:29;99986.63;;;8.35;71.54
66430;BME280;53242;51.694;10.006;2023-02-18T01:17:51;99984.16;;;8.34;71.41
66430;BME280;53242;51.694;10.006;2023-02-18T01:20:14;99969.38;;;8.33;71.53
66430;BME280;53242;51.694;10.006;2023-02-18T01:22:37;99982.03;;;8.37;71.48
66430;BME280;53242;51.694;10.006;2023-02-18T01:25:03;99983.16;;;8.43;71.61
66430;BME280;53242;51.694;10.006;2023-02-18T01:27:25;99989.06;;;8.45;71.38
66430;BME280;53242;51.694;10.006;2023-02-18T01:29:49;99982.03;;;8.46;71.49
66430;BME280;53242;51.694;10.006;2023-02-18T01:32:11;99989.44;;;8.50;71.35
66430;BME280;53242;51.694;10.006;2023-02-18T01:34:33;99982.81;;;8.54;71.10
66430;BME280;53242;51.694;10.006;2023-02-18T01:36:56;99983.81;;;8.53;71.23
66430;BME280;53242;51.694;10.006;2023-02-18T01:39:18;99986.78;;;8.50;71.54
66430;BME280;53242;51.694;10.006;2023-02-18T01:41:41;99977.91;;;8.51;71.75
66430;BME280;53242;51.694;10.006;2023-02-18T01:44:18;99980.69;;;8.50;71.72
66430;BME280;53242;51.694;10.006;2023-02-18T01:46:41;99982.88;;;8.46;72.26
66430;BME280;53242;51.694;10.006;2023-02-18T01:49:04;99975.59;;;8.48;72.48
66430;BME280;53242;51.694;10.006;2023-02-18T01:51:31;99982.66;;;8.39;72.69
66430;BME280;53242;51.694;10.006;2023-02-18T01:53:58;99978.72;;;8.35;73.02
66430;BME280;53242;51.694;10.006;2023-02-18T01:56:27;99973.97;;;8.39;72.87
66430;BME280;53242;51.694;10.006;2023-02-18T01:58:52;99975.94;;;8.45;72.74
66430;BME280;53242;51.694;10.006;2023-02-18T02:01:16;99980.88;;;8.48;72.82
66430;BME280;53242;51.694;10.006;2023-02-18T02:03:38;99972.47;;;8.45;73.03
66430;BME280;53242;51.694;10.006;2023-02-18T02:06:01;99966.72;;;8.49;72.83
66430;BME280;53242;51.694;10.006;2023-02-18T02:08:23;99956.22;;;8.49;72.75
66430;BME280;53242;51.694;10.006;2023-02-18T02:10:57;99962.09;;;8.43;72.82
66430;BME280;53242;51.694;10.006;2023-02-18T02:16:30;99958.50;;;8.44;73.12
66430;BME280;53242;51.694;10.006;2023-02-18T02:22:04;99957.19;;;8.48;74.22
66430;BME280;53242;51.694;10.006;2023-02-18T02:27:24;99944.84;;;8.57;74.32
66430;BME280;53242;51.694;10.006;2023-02-18T02:40:27;99913.13;;;8.50;76.01
66430;BME280;53242;51.694;10.006;2023-02-18T02:43:26;99912.09;;;8.60;76.09
66430;BME280;53242;51.694;10.006;2023-02-18T02:45:58;99909.81;;;8.57;76.10
66430;BME280;53242;51.694;10.006;2023-02-18T02:51:17;99901.22;;;8.63;76.83
66430;BME280;53242;51.694;10.006;2023-02-18T02:53:43;99902.91;;;8.55;77.05
66430;BME280;53242;51.694;10.006;2023-02-18T02:56:05;99890.25;;;8.59;77.44
66430;BME280;53242;51.694;10.006;2023-02-18T02:58:28;99888.91;;;8.63;77.32
66430;BME280;53242;51.694;10.006;2023-02-18T03:03:42;99883.00;;;8.61;78.71
66430;BME280;53242;51.694;10.006;2023-02-18T03:06:40;99876.63;;;8.55;79.44
66430;BME280;53242;51.694;10.006;2023-02-18T03:09:17;99881.34;;;8.60;79.48
66430;BME280;53242;51.694;10.006;2023-02-18T03:17:34;99870.78;;;8.68;80.14
66430;BME280;53242;51.694;10.006;2023-02-18T03:20:09;99869.63;;;8.71;80.75
66430;BME280;53242;51.694;10.006;2023-02-18T03:22:41;99876.00;;;8.77;80.31
66430;BME280;53242;51.694;10.006;2023-02-18T03:25:06;99870.75;;;8.77;80.43
66430;BME280;53242;51.694;10.006;2023-02-18T03:27:37;99869.69;;;8.86;80.73
66430;BME280;53242;51.694;10.006;2023-02-18T03:30:32;99863.16;;;8.82;81.31
66430;BME280;53242;51.694;10.006;2023-02-18T03:33:03;99850.16;;;8.80;81.13
66430;BME280;53242;51.694;10.006;2023-02-18T03:35:26;99851.63;;;8.83;81.18
66430;BME280;53242;51.694;10.006;2023-02-18T03:38:10;99850.09;;;8.88;82.49
66430;BME280;53242;51.694;10.006;2023-02-18T03:40:33;99848.00;;;8.84;81.83
66430;BME280;53242;51.694;10.006;2023-02-18T03:42:58;99850.47;;;8.85;81.94
66430;BME280;53242;51.694;10.006;2023-02-18T03:45:20;99840.91;;;8.84;82.39
66430;BME280;53242;51.694;10.006;2023-02-18T03:47:43;99840.59;;;8.87;82.07
66430;BME280;53242;51.694;10.006;2023-02-18T03:50:06;99842.06;;;8.90;82.14
66430;BME280;53242;51.694;10.006;2023-02-18T03:52:28;99831.06;;;8.86;82.89
66430;BME280;53242;51.694;10.006;2023-02-18T03:54:51;99830.00;;;8.96;82.30
66430;BME280;53242;51.694;10.006;2023-02-18T03:57:13;99827.66;;;9.01;82.08
66430;BME280;53242;51.694;10.006;2023-02-18T03:59:36;99824.84;;;9.02;82.26
66430;BME280;53242;51.694;10.006;2023-02-18T04:01:58;99826.31;;;9.05;82.30
66430;BME280;53242;51.694;10.006;2023-02-18T04:04:20;99823.03;;;9.03;82.82
66430;BME280;53242;51.694;10.006;2023-02-18T04:06:43;99815.19;;;8.95;83.57
66430;BME280;53242;51.694;10.006;2023-02-18T04:09:05;99818.66;;;8.95;84.31
66430;BME280;53242;51.694;10.006;2023-02-18T04:11:30;99810.75;;;8.95;84.11
66430;BME280;53242;51.694;10.006;2023-02-18T04:13:52;99807.53;;;8.85;85.29
66430;BME280;53242;51.694;10.006;2023-02-18T04:16:14;99807.69;;;8.83;86.53
66430;BME280;53242;51.694;10.006;2023-02-18T04:18:37;99802.09;;;8.86;86.68
66430;BME280;53242;51.694;10.006;2023-02-18T04:20:59;99797.16;;;8.83;87.13
66430;BME280;53242;51.694;10.006;2023-02-18T04:23:22;99793.53;;;8.84;87.65
66430;BME280;53242;51.694;10.006;2023-02-18T04:25:44;99791.75;;;8.85;86.84
66430;BME280;53242;51.694;10.006;2023-02-18T04:28:07;99795.78;;;8.96;87.36
66430;BME280;53242;51.694;10.006;2023-02-18T04:30:32;99788.38;;;8.91;87.98
66430;BME280;53242;51.694;10.006;2023-02-18T04:32:54;99793.84;;;8.89;88.26
66430;BME280;53242;51.694;10.006;2023-02-18T04:35:17;99792.03;;;8.90;88.61
66430;BME280;53242;51.694;10.006;2023-02-18T04:37:39;99782.97;;;8.93;88.71
66430;BME280;53242;51.694;10.006;2023-02-18T04:40:02;99782.69;;;8.87;89.57
66430;BME280;53242;51.694;10.006;2023-02-18T04:42:25;99776.25;;;8.90;89.83
66430;BME280;53242;51.694;10.006;2023-02-18T04:44:47;99770.84;;;8.83;89.54
66430;BME280;53242;51.694;10.006;2023-02-18T04:47:09;99768.06;;;8.85;90.49
66430;BME280;53242;51.694;10.006;2023-02-18T04:49:32;99764.78;;;8.83;90.83
66430;BME280;53242;51.694;10.006;2023-02-18T04:51:54;99757.06;;;8.81;91.43
66430;BME280;53242;51.694;10.006;2023-02-18T04:54:17;99753.25;;;8.84;91.30
66430;BME280;53242;51.694;10.006;2023-02-18T04:56:39;99759.00;;;8.87;91.48
66430;BME280;53242;51.694;10.006;2023-02-18T04:59:02;99753.19;;;8.92;91.46
66430;BME280;53242;51.694;10.006;2023-02-18T05:01:24;99742.91;;;8.82;91.27
66430;BME280;53242;51.694;10.006;2023-02-18T05:03:46;99745.38;;;8.84;91.76
66430;BME280;53242;51.694;10.006;2023-02-18T05:06:09;99748.19;;;8.82;92.61
66430;BME280;53242;51.694;10.006;2023-02-18T05:08:31;99736.81;;;8.82;93.85
66430;BME280;53242;51.694;10.006;2023-02-18T05:10:54;99736.81;;;8.82;93.51
66430;BME280;53242;51.694;10.006;2023-02-18T05:13:16;99730.94;;;8.80;94.14
66430;BME280;53242;51.694;10.006;2023-02-18T05:15:39;99726.75;;;8.85;94.28
66430;BME280;53242;51.694;10.006;2023-02-18T05:18:01;99719.50;;;8.87;94.12
66430;BME280;53242;51.694;10.006;2023-02-18T05:20:23;99720.78;;;8.92;94.60
66430;BME280;53242;51.694;10.006;2023-02-18T05:22:46;99721.41;;;8.94;95.28
66430;BME280;53242;51.694;10.006;2023-02-18T05:25:08;99721.16;;;9.03;94.86
66430;BME280;53242;51.694;10.006;2023-02-18T05:27:31;99709.19;;;9.01;95.68
66430;BME280;53242;51.694;10.006;2023-02-18T05:29:53;99699.81;;;8.98;95.48
66430;BME280;53242;51.694;10.006;2023-02-18T05:32:16;99702.66;;;8.97;96.17
66430;BME280;53242;51.694;10.006;2023-02-18T05:34:38;99702.56;;;9.05;95.01
66430;BME280;53242;51.694;10.006;2023-02-18T05:37:00;99703.22;;;9.07;95.58
66430;BME280;53242;51.694;10.006;2023-02-18T05:39:23;99691.13;;;8.98;96.43
66430;BME280;53242;51.694;10.006;2023-02-18T05:41:45;99688.41;;;9.06;96.63
66430;BME280;53242;51.694;10.006;2023-02-18T05:44:08;99693.66;;;9.06;96.61
66430;BME280;53242;51.694;10.006;2023-02-18T05:46:48;99689.84;;;9.09;96.40
66430;BME280;53242;51.694;10.006;2023-02-18T05:49:11;99690.50;;;9.11;96.72
66430;BME280;53242;51.694;10.006;2023-02-18T05:51:33;99689.75;;;9.17;95.70
66430;BME280;53242;51.694;10.006;2023-02-18T05:53:55;99670.53;;;9.16;96.16
66430;BME280;53242;51.694;10.006;2023-02-18T05:56:18;99675.41;;;9.19;96.47
66430;BME280;53242;51.694;10.006;2023-02-18T05:58:40;99681.16;;;9.23;96.32
66430;BME280;53242;51.694;10.006;2023-02-18T06:01:03;99681.22;;;9.30;95.48
66430;BME280;53242;51.694;10.006;2023-02-18T06:03:26;99669.09;;;9.29;95.53
66430;BME280;53242;51.694;10.006;2023-02-18T06:05:49;99671.88;;;9.27;95.72
66430;BME280;53242;51.694;10.006;2023-02-18T06:08:11;99673.72;;;9.27;94.92
66430;BME280;53242;51.694;10.006;2023-02-18T06:10:33;99671.25;;;9.25;95.74
66430;BME280;53242;51.694;10.006;2023-02-18T06:12:56;99658.91;;;9.26;95.92
66430;BME280;53242;51.694;10.006;2023-02-18T06:15:18;99663.28;;;9.18;96.46
66430;BME280;53242;51.694;10.006;2023-02-18T06:17:41;99658.00;;;9.18;96.65
66430;BME280;53242;51.694;10.006;2023-02-18T06:20:03;99659.09;;;9.24;95.52
66430;BME280;53242;51.694;10.006;2023-02-18T06:22:26;99662.25;;;9.19;95.81
66430;BME280;53242;51.694;10.006;2023-02-18T06:24:48;99649.72;;;9.21;96.67
66430;BME280;53242;51.694;10.006;2023-02-18T06:27:11;99652.00;;;9.25;96.99
66430;BME280;53242;51.694;10.006;2023-02-18T06:29:33;99650.72;;;9.20;97.33
66430;BME280;53242;51.694;10.006;2023-02-18T06:31:58;99637.22;;;9.24;98.05
66430;BME280;53242;51.694;10.006;2023-02-18T06:34:20;99634.19;;;9.27;97.72
66430;BME280;53242;51.694;10.006;2023-02-18T06:36:42;99626.69;;;9.24;98.43
66430;BME280;53242;51.694;10.006;2023-02-18T06:39:05;99626.94;;;9.29;97.66
66430;BME280;53242;51.694;10.006;2023-02-18T06:41:28;99633.56;;;9.25;97.93
66430;BME280;53242;51.694;10.006;2023-02-18T06:43:50;99624.03;;;9.24;98.60
66430;BME280;53242;51.694;10.006;2023-02-18T06:46:12;99622.41;;;9.23;99.39
66430;BME280;53242;51.694;10.006;2023-02-18T06:48:35;99627.28;;;9.26;99.12
66430;BME280;53242;51.694;10.006;2023-02-18T06:50:58;99624.47;;;9.27;99.06
66430;BME280;53242;51.694;10.006;2023-02-18T06:53:20;99625.31;;;9.28;99.69
66430;BME280;53242;51.694;10.006;2023-02-18T06:55:43;99619.59;;;9.24;99.66
66430;BME280;53242;51.694;10.006;2023-02-18T06:58:06;99610.31;;;9.28;99.83
66430;BME280;53242;51.694;10.006;2023-02-18T07:00:28;99606.22;;;9.26;100.00
66430;BME280;53242;51.694;10.006;2023-02-18T07:02:50;99609.31;;;9.29;99.89
66430;BME280;53242;51.694;10.006;2023-02-18T07:05:13;99604.84;;;9.30;100.00
66430;BME280;53242;51.694;10.006;2023-02-18T07:07:35;99595.63;;;9.34;99.48
66430;BME280;53242;51.694;10.006;2023-02-18T07:09:58;99594.50;;;9.28;100.00
66430;BME280;53242;51.694;10.006;2023-02-18T07:12:20;99594.78;;;9.33;100.00
66430;BME280;53242;51.694;10.006;2023-02-18T07:14:43;99593.13;;;9.32;100.00
66430;BME280;53242;51.694;10.006;2023-02-18T07:17:05;99585.25;;;9.32;100.00
66430;BME280;53242;51.694;10.006;2023-02-18T07:19:27;99583.44;;;9.33;100.00
66430;BME280;53242;51.694;10.006;2023-02-18T07:21:50;99574.44;;;9.27;100.00
66430;BME280;53242;51.694;10.006;2023-02-18T07:24:12;99580.06;;;9.39;100.00
66430;BME280;53242;51.694;10.006;2023-02-18T07:26:34;99587.34;;;9.37;100.00
66430;BME280;53242;51.694;10.006;2023-02-18T07:28:57;99590.16;;;9.35;100.00
66430;BME280;53242;51.694;10.006;2023-02-18T07:31:19;99584.50;;;9.38;100.00
66430;BME280;53242;51.694;10.006;2023-02-18T07:33:42;99595.31;;;9.44;100.00
66430;BME280;53242;51.694;10.006;2023-02-18T07:36:05;99583.50;;;9.40;100.00
66430;BME280;53242;51.694;10.006;2023-02-18T07:38:27;99584.88;;;9.35;100.00
66430;BME280;53242;51.694;10.006;2023-02-18T07:40:50;99585.75;;;9.43;100.00
66430;BME280;53242;51.694;10.006;2023-02-18T07:43:12;99577.06;;;9.42;100.00
66430;BME280;53242;51.694;10.006;2023-02-18T07:45:37;99577.00;;;9.35;100.00
66430;BME280;53242;51.694;10.006;2023-02-18T07:47:59;99564.81;;;9.34;100.00
66430;BME280;53242;51.694;10.006;2023-02-18T07:50:22;99559.94;;;9.31;100.00
66430;BME280;53242;51.694;10.006;2023-02-18T07:52:44;99561.38;;;9.34;100.00
66430;BME280;53242;51.694;10.006;2023-02-18T07:55:07;99559.41;;;9.43;100.00
66430;BME280;53242;51.694;10.006;2023-02-18T07:57:29;99551.09;;;9.39;100.00
66430;BME280;53242;51.694;10.006;2023-02-18T07:59:52;99552.16;;;9.45;100.00
66430;BME280;53242;51.694;10.006;2023-02-18T08:02:20;99546.00;;;9.37;100.00
66430;BME280;53242;51.694;10.006;2023-02-18T08:04:43;99542.16;;;9.40;100.00
66430;BME280;53242;51.694;10.006;2023-02-18T08:07:05;99547.88;;;9.44;100.00
66430;BME280;53242;51.694;10.006;2023-02-18T08:09:28;99548.53;;;9.46;100.00
66430;BME280;53242;51.694;10.006;2023-02-18T08:11:50;99542.81;;;9.42;100.00
66430;BME280;53242;51.694;10.006;2023-02-18T08:14:13;99548.41;;;9.54;100.00
66430;BME280;53242;51.694;10.006;2023-02-18T08:16:35;99544.91;;;9.47;100.00
66430;BME280;53242;51.694;10.006;2023-02-18T08:18:57;99546.78;;;9.53;100.00
66430;BME280;53242;51.694;10.006;2023-02-18T08:21:21;99545.31;;;9.50;100.00
66430;BME280;53242;51.694;10.006;2023-02-18T08:23:45;99535.22;;;9.54;100.00
66430;BME280;53242;51.694;10.006;2023-02-18T08:26:08;99530.41;;;9.58;100.00
66430;BME280;53242;51.694;10.006;2023-02-18T08:28:37;99534.09;;;9.63;100.00
66430;BME280;53242;51.694;10.006;2023-02-18T08:30:59;99525.41;;;9.63;100.00
66430;BME280;53242;51.694;10.006;2023-02-18T08:33:22;99530.91;;;9.68;100.00
66430;BME280;53242;51.694;10.006;2023-02-18T08:35:46;99525.59;;;9.61;100.00
66430;BME280;53242;51.694;10.006;2023-02-18T08:38:10;99523.72;;;9.77;100.00
66430;BME280;53242;51.694;10.006;2023-02-18T08:40:32;99519.38;;;9.69;100.00
66430;BME280;53242;51.694;10.006;2023-02-18T08:42:54;99524.22;;;9.65;100.00
66430;BME280;53242;51.694;10.006;2023-02-18T08:45:17;99533.94;;;9.65;100.00
66430;BME280;53242;51.694;10.006;2023-02-18T08:47:39;99529.78;;;9.77;100.00
66430;BME280;53242;51.694;10.006;2023-02-18T08:50:02;99529.78;;;9.77;100.00
66430;BME280;53242;51.694;10.006;2023-02-18T08:52:26;99531.44;;;9.78;100.00
66430;BME280;53242;51.694;10.006;2023-02-18T08:54:49;99530.25;;;9.81;100.00
66430;BME280;53242;51.694;10.006;2023-02-18T08:57:11;99528.59;;;9.80;100.00
66430;BME280;53242;51.694;10.006;2023-02-18T08:59:34;99529.84;;;9.84;100.00
66430;BME280;53242;51.694;10.006;2023-02-18T09:01:56;99528.78;;;9.78;100.00
66430;BME280;53242;51.694;10.006;2023-02-18T09:04:19;99524.31;;;9.79;100.00
66430;BME280;53242;51.694;10.006;2023-02-18T09:06:42;99533.88;;;9.80;100.00
66430;BME280;53242;51.694;10.006;2023-02-18T09:09:05;99525.75;;;9.81;100.00
66430;BME280;53242;51.694;10.006;2023-02-18T09:11:28;99525.16;;;9.79;100.00
66430;BME280;53242;51.694;10.006;2023-02-18T09:13:50;99530.69;;;9.84;100.00
66430;BME280;53242;51.694;10.006;2023-02-18T09:16:15;99521.13;;;9.83;100.00
66430;BME280;53242;51.694;10.006;2023-02-18T09:18:39;99513.09;;;9.92;100.00
66430;BME280;53242;51.694;10.006;2023-02-18T09:21:03;99518.69;;;9.82;100.00
66430;BME280;53242;51.694;10.006;2023-02-18T09:23:28;99504.31;;;9.84;100.00
66430;BME280;53242;51.694;10.006;2023-02-18T09:25:51;99504.06;;;9.79;100.00
66430;BME280;53242;51.694;10.006;2023-02-18T09:28:13;99508.97;;;9.82;100.00
66430;BME280;53242;51.694;10.006;2023-02-18T09:30:38;99502.50;;;9.85;100.00
66430;BME280;53242;51.694;10.006;2023-02-18T09:33:01;99503.31;;;9.85;100.00
66430;BME280;53242;51.694;10.006;2023-02-18T09:35:23;99502.88;;;9.82;100.00
66430;BME280;53242;51.694;10.006;2023-02-18T09:37:45;99506.75;;;9.86;100.00
66430;BME280;53242;51.694;10.006;2023-02-18T09:40:21;99505.41;;;9.97;100.00
66430;BME280;53242;51.694;10.006;2023-02-18T09:42:45;99509.44;;;9.93;100.00
66430;BME280;53242;51.694;10.006;2023-02-18T09:45:10;99509.66;;;9.91;100.00
66430;BME280;53242;51.694;10.006;2023-02-18T09:47:36;99508.66;;;9.92;100.00
66430;BME280;53242;51.694;10.006;2023-02-18T09:50:06;99515.38;;;9.95;100.00
66430;BME280;53242;51.694;10.006;2023-02-18T09:52:31;99506.06;;;9.99;99.87
66430;BME280;53242;51.694;10.006;2023-02-18T09:54:54;99500.78;;;9.99;99.97
66430;BME280;53242;51.694;10.006;2023-02-18T09:57:25;99492.31;;;10.03;99.88
66430;BME280;53242;51.694;10.006;2023-02-18T09:59:55;99487.84;;;10.04;99.73
66430;BME280;53242;51.694;10.006;2023-02-18T10:02:18;99493.69;;;9.99;99.91
66430;BME280;53242;51.694;10.006;2023-02-18T10:04:43;99501.22;;;10.02;99.32
66430;BME280;53242;51.694;10.006;2023-02-18T10:07:42;99500.59;;;10.00;99.09
66430;BME280;53242;51.694;10.006;2023-02-18T10:12:51;99509.13;;;10.02;98.81
66430;BME280;53242;51.694;10.006;2023-02-18T10:15:22;99506.44;;;9.96;98.79
66430;BME280;53242;51.694;10.006;2023-02-18T10:17:47;99488.59;;;9.98;98.59
66430;BME280;53242;51.694;10.006;2023-02-18T10:20:15;99500.78;;;9.99;98.29
66430;BME280;53242;51.694;10.006;2023-02-18T10:22:38;99493.50;;;10.01;97.65
66430;BME280;53242;51.694;10.006;2023-02-18T10:25:02;99504.81;;;9.95;97.68
66430;BME280;53242;51.694;10.006;2023-02-18T10:27:30;99504.56;;;10.11;96.51
66430;BME280;53242;51.694;10.006;2023-02-18T10:29:54;99494.59;;;10.13;95.62
66430;BME280;53242;51.694;10.006;2023-02-18T10:32:27;99495.00;;;10.10;95.79
66430;BME280;53242;51.694;10.006;2023-02-18T10:34:59;99484.56;;;10.02;96.23
66430;BME280;53242;51.694;10.006;2023-02-18T10:40:22;99495.19;;;10.09;96.35
66430;BME280;53242;51.694;10.006;2023-02-18T10:43:02;99484.06;;;10.13;95.96
66430;BME280;53242;51.694;10.006;2023-02-18T10:45:40;99485.13;;;10.19;94.67
66430;BME280;53242;51.694;10.006;2023-02-18T10:48:48;99461.22;;;10.27;93.83
66430;BME280;53242;51.694;10.006;2023-02-18T10:51:21;99460.13;;;10.15;94.38
66430;BME280;53242;51.694;10.006;2023-02-18T10:53:45;99460.44;;;10.27;93.79
66430;BME280;53242;51.694;10.006;2023-02-18T10:56:34;99449.00;;;10.19;92.84
66430;BME280;53242;51.694;10.006;2023-02-18T10:59:10;99443.75;;;10.19;92.82
66430;BME280;53242;51.694;10.006;2023-02-18T11:01:33;99449.41;;;10.16;92.80
66430;BME280;53242;51.694;10.006;2023-02-18T11:04:14;99470.34;;;10.25;91.59
66430;BME280;53242;51.694;10.006;2023-02-18T11:06:40;99458.28;;;10.37;89.97
66430;BME280;53242;51.694;10.006;2023-02-18T11:09:03;99435.56;;;10.36;90.25
66430;BME280;53242;51.694;10.006;2023-02-18T11:11:33;99433.25;;;10.33;90.05
66430;BME280;53242;51.694;10.006;2023-02-18T11:14:00;99418.22;;;10.27;89.23
66430;BME280;53242;51.694;10.006;2023-02-18T11:16:24;99409.13;;;10.29;89.62
66430;BME280;53242;51.694;10.006;2023-02-18T11:18:57;99394.38;;;10.42;87.43
66430;BME280;53242;51.694;10.006;2023-02-18T11:21:30;99395.53;;;10.32;88.59
66430;BME280;53242;51.694;10.006;2023-02-18T11:23:54;99415.88;;;10.39;88.34
66430;BME280;53242;51.694;10.006;2023-02-18T11:26:28;99420.63;;;10.50;87.34
66430;BME280;53242;51.694;10.006;2023-02-18T11:28:56;99420.19;;;10.46;85.83
66430;BME280;53242;51.694;10.006;2023-02-18T11:31:23;99444.44;;;10.35;85.88
66430;BME280;53242;51.694;10.006;2023-02-18T11:33:52;99424.03;;;10.44;85.34
66430;BME280;53242;51.694;10.006;2023-02-18T11:36:24;99431.72;;;10.39;84.46
66430;BME280;53242;51.694;10.006;2023-02-18T11:39:19;99426.66;;;10.44;84.24
66430;BME280;53242;51.694;10.006;2023-02-18T11:41:46;99416.81;;;10.31;84.77
66430;BME280;53242;51.694;10.006;2023-02-18T11:44:22;99427.56;;;10.29;84.71
66430;BME280;53242;51.694;10.006;2023-02-18T11:49:35;99428.44;;;10.36;84.52
66430;BME280;53242;51.694;10.006;2023-02-18T11:52:17;99447.16;;;10.48;84.50
66430;BME280;53242;51.694;10.006;2023-02-18T11:54:40;99445.50;;;10.41;84.83
66430;BME280;53242;51.694;10.006;2023-02-18T11:57:09;99438.06;;;10.23;84.58
66430;BME280;53242;51.694;10.006;2023-02-18T11:59:35;99447.41;;;10.25;83.70
66430;BME280;53242;51.694;10.006;2023-02-18T12:04:40;99456.53;;;10.23;84.53
66430;BME280;53242;51.694;10.006;2023-02-18T12:09:51;99441.34;;;10.25;84.67
66430;BME280;53242;51.694;10.006;2023-02-18T12:12:26;99458.31;;;10.15;84.59
66430;BME280;53242;51.694;10.006;2023-02-18T12:14:49;99456.88;;;10.13;84.70
66430;BME280;53242;51.694;10.006;2023-02-18T12:17:26;99473.78;;;10.25;84.18
66430;BME280;53242;51.694;10.006;2023-02-18T12:19:59;99453.88;;;10.23;83.51
66430;BME280;53242;51.694;10.006;2023-02-18T12:22:40;99432.41;;;10.26;84.11
66430;BME280;53242;51.694;10.006;2023-02-18T12:25:34;99452.88;;;10.24;84.63
66430;BME280;53242;51.694;10.006;2023-02-18T12:30:43;99453.66;;;10.17;85.53
66430;BME280;53242;51.694;10.006;2023-02-18T12:33:32;99454.69;;;10.16;85.68
66430;BME280;53242;51.694;10.006;2023-02-18T12:36:26;99448.34;;;10.11;86.35
66430;BME280;53242;51.694;10.006;2023-02-18T12:39:00;99470.50;;;10.16;85.61
66430;BME280;53242;51.694;10.006;2023-02-18T12:50:00;99464.56;;;10.08;86.25
66430;BME280;53242;51.694;10.006;2023-02-18T12:55:50;99440.59;;;10.02;86.14
66430;BME280;53242;51.694;10.006;2023-02-18T13:04:11;99453.13;;;10.29;85.97
66430;BME280;53242;51.694;10.006;2023-02-18T13:10:18;99461.72;;;10.09;86.11
66430;BME280;53242;51.694;10.006;2023-02-18T13:15:26;99478.53;;;10.08;86.22
66430;BME280;53242;51.694;10.006;2023-02-18T13:17:50;99470.38;;;10.03;86.67
66430;BME280;53242;51.694;10.006;2023-02-18T13:20:24;99475.41;;;9.98;86.69
66430;BME280;53242;51.694;10.006;2023-02-18T13:22:51;99477.06;;;9.99;86.56
66430;BME280;53242;51.694;10.006;2023-02-18T13:25:15;99480.88;;;9.96;86.53
66430;BME280;53242;51.694;10.006;2023-02-18T13:28:00;99492.44;;;9.95;86.63
66430;BME280;53242;51.694;10.006;2023-02-18T13:34:07;99484.16;;;9.98;86.20
66430;BME280;53242;51.694;10.006;2023-02-18T13:39:27;99488.94;;;9.88;86.92
66430;BME280;53242;51.694;10.006;2023-02-18T13:41:51;99491.69;;;10.01;86.51
66430;BME280;53242;51.694;10.006;2023-02-18T13:47:44;99495.91;;;9.96;87.55
66430;BME280;53242;51.694;10.006;2023-02-18T13:50:28;99500.28;;;9.88;87.75
66430;BME280;53242;51.694;10.006;2023-02-18T13:53:13;99501.53;;;9.93;87.68
66430;BME280;53242;51.694;10.006;2023-02-18T13:55:47;99485.66;;;9.86;88.57
66430;BME280;53242;51.694;10.006;2023-02-18T13:58:19;99489.19;;;9.93;88.20
66430;BME280;53242;51.694;10.006;2023-02-18T14:00:48;99482.13;;;10.00;88.23
66430;BME280;53242;51.694;10.006;2023-02-18T14:05:54;99489.56;;;10.18;86.21
66430;BME280;53242;51.694;10.006;2023-02-18T14:08:36;99486.38;;;10.23;85.89
66430;BME280;53242;51.694;10.006;2023-02-18T14:13:43;99499.34;;;10.25;85.72
66430;BME280;53242;51.694;10.006;2023-02-18T14:16:09;99489.63;;;10.25;85.53